sensor_id;sensor_type;location;lat;lon;timestamp;temperature;humidity
11617;DHT22;5864;52.998;9.068;2023-06-24T00:02:14;17.70;99.90
11617;DHT22;5864;52.998;9.068;2023-06-24T00:04:59;17.70;99.90
11617;DHT22;5864;52.998;9.068;2023-06-24T00:07:46;17.60;99.90
11617;DHT22;5864;52.998;9.068;2023-06-24T00:10:32;17.60;99.90
11617;DHT22;5864;52.998;9.068;2023-06-24T00:13:18;17.50;99.90
11617;DHT22;5864;52.998;9.068;2023-06-24T00:16:04;17.50;99.90
11617;DHT22;5864;52.998;9.068;2023-06-24T00:18:53;17.50;99.90
11617;DHT22;5864;52.998;9.068;2023-06-24T00:21:39;17.50;99.90
11617;DHT22;5864;52.998;9.068;2023-06-24T00:24:25;17.40;99.90
11617;DHT22;5864;52.998;9.068;2023-06-24T00:27:10;17.40;99.90
11617;DHT22;5864;52.998;9.068;2023-06-24T00:29:55;17.30;99.90
11617;DHT22;5864;52.998;9.068;2023-06-24T00:32:41;17.30;99.90
11617;DHT22;5864;52.998;9.068;2023-06-24T00:35:28;17.30;99.90
11617;DHT22;5864;52.998;9.068;2023-06-24T00:38:13;17.20;99.90
11617;DHT22;5864;52.998;9.068;2023-06-24T00:40:59;17.20;99.90
11617;DHT22;5864;52.998;9.068;2023-06-24T00:43:44;17.10;99.90
11617;DHT22;5864;52.998;9.068;2023-06-24T00:46:30;17.10;99.90
11617;DHT22;5864;52.998;9.068;2023-06-24T00:49:17;17.00;99.90
11617;DHT22;5864;52.998;9.068;2023-06-24T00:52:06;16.90;99.90
11617;DHT22;5864;52.998;9.068;2023-06-24T00:54:54;17.00;99.90
11617;DHT22;5864;52.998;9.068;2023-06-24T00:57:42;17.00;99.90
11617;DHT22;5864;52.998;9.068;2023-06-24T01:00:28;16.90;99.90
11617;DHT22;5864;52.998;9.068;2023-06-24T01:03:14;16.90;99.90
11617;DHT22;5864;52.998;9.068;2023-06-24T01:06:00;16.90;99.90
11617;DHT22;5864;52.998;9.068;2023-06-24T01:08:48;16.80;99.90
11617;DHT22;5864;52.998;9.068;2023-06-24T01:11:34;16.80;99.90
11617;DHT22;5864;52.998;9.068;2023-06-24T01:14:20;16.80;99.90
11617;DHT22;5864;52.998;9.068;2023-06-24T01:17:11;16.80;99.90
11617;DHT22;5864;52.998;9.068;2023-06-24T01:20:04;16.80;99.90
11617;DHT22;5864;52.998;9.068;2023-06-24T01:26:21;16.70;99.90
11617;DHT22;5864;52.998;9.068;2023-06-24T01:32:27;16.60;99.90
11617;DHT22;5864;52.998;9.068;2023-06-24T01:35:21;16.60;99.90
11617;DHT22;5864;52.998;9.068;2023-06-24T01:38:13;16.60;99.90
11617;DHT22;5864;52.998;9.068;2023-06-24T01:41:03;16.50;99.90
11617;DHT22;5864;52.998;9.068;2023-06-24T01:43:51;16.50;99.90
11617;DHT22;5864;52.998;9.068;2023-06-24T01:46:37;16.50;99.90
11617;DHT22;5864;52.998;9.068;2023-06-24T01:49:28;16.50;99.90
11617;DHT22;5864;52.998;9.068;2023-06-24T01:52:14;16.50;99.90
11617;DHT22;5864;52.998;9.068;2023-06-24T01:55:01;16.40;99.90
11617;DHT22;5864;52.998;9.068;2023-06-24T01:57:48;16.40;99.90
11617;DHT22;5864;52.998;9.068;2023-06-24T02:00:35;16.40;99.90
11617;DHT22;5864;52.998;9.068;2023-06-24T02:03:22;16.30;99.90
11617;DHT22;5864;52.998;9.068;2023-06-24T02:06:10;16.30;99.90
11617;DHT22;5864;52.998;9.068;2023-06-24T02:08:58;16.30;99.90
11617;DHT22;5864;52.998;9.068;2023-06-24T02:11:44;16.30;99.90
11617;DHT22;5864;52.998;9.068;2023-06-24T02:14:30;16.20;99.90
11617;DHT22;5864;52.998;9.068;2023-06-24T02:17:17;16.30;99.90
11617;DHT22;5864;52.998;9.068;2023-06-24T02:20:05;16.20;99.90
11617;DHT22;5864;52.998;9.068;2023-06-24T02:22:54;16.20;99.90
11617;DHT22;5864;52.998;9.068;2023-06-24T02:25:42;16.20;99.90
11617;DHT22;5864;52.998;9.068;2023-06-24T02:28:29;16.10;99.90
11617;DHT22;5864;52.998;9.068;2023-06-24T02:31:15;16.10;99.90
11617;DHT22;5864;52.998;9.068;2023-06-24T02:34:01;16.10;99.90
11617;DHT22;5864;52.998;9.068;2023-06-24T02:36:47;16.10;99.90
11617;DHT22;5864;52.998;9.068;2023-06-24T02:39:33;16.00;99.90
11617;DHT22;5864;52.998;9.068;2023-06-24T02:42:19;16.00;99.90
11617;DHT22;5864;52.998;9.068;2023-06-24T02:45:06;16.10;99.90
11617;DHT22;5864;52.998;9.068;2023-06-24T02:47:52;16.10;99.90
11617;DHT22;5864;52.998;9.068;2023-06-24T02:50:40;16.10;99.90
11617;DHT22;5864;52.998;9.068;2023-06-24T02:53:28;16.00;99.90
11617;DHT22;5864;52.998;9.068;2023-06-24T02:56:16;16.10;99.90
11617;DHT22;5864;52.998;9.068;2023-06-24T02:59:05;16.10;99.90
11617;DHT22;5864;52.998;9.068;2023-06-24T03:01:51;16.10;99.90
11617;DHT22;5864;52.998;9.068;2023-06-24T03:04:37;16.10;99.90
11617;DHT22;5864;52.998;9.068;2023-06-24T03:07:24;16.10;99.90
11617;DHT22;5864;52.998;9.068;2023-06-24T03:10:10;16.00;99.90
11617;DHT22;5864;52.998;9.068;2023-06-24T03:12:57;16.00;99.90
11617;DHT22;5864;52.998;9.068;2023-06-24T03:15:43;16.00;99.90
11617;DHT22;5864;52.998;9.068;2023-06-24T03:18:28;16.00;99.90
11617;DHT22;5864;52.998;9.068;2023-06-24T03:21:14;16.00;99.90
11617;DHT22;5864;52.998;9.068;2023-06-24T03:23:59;15.90;99.90
11617;DHT22;5864;52.998;9.068;2023-06-24T03:26:46;16.00;99.90
11617;DHT22;5864;52.998;9.068;2023-06-24T03:29:33;15.90;99.90
11617;DHT22;5864;52.998;9.068;2023-06-24T03:32:18;15.90;99.90
11617;DHT22;5864;52.998;9.068;2023-06-24T03:35:04;15.90;99.90
11617;DHT22;5864;52.998;9.068;2023-06-24T03:37:51;15.90;99.90
11617;DHT22;5864;52.998;9.068;2023-06-24T03:40:37;16.00;99.90
11617;DHT22;5864;52.998;9.068;2023-06-24T03:43:22;16.00;99.90
11617;DHT22;5864;52.998;9.068;2023-06-24T03:46:09;16.00;99.90
11617;DHT22;5864;52.998;9.068;2023-06-24T03:48:55;16.10;99.90
11617;DHT22;5864;52.998;9.068;2023-06-24T03:51:41;16.10;99.90
11617;DHT22;5864;52.998;9.068;2023-06-24T03:54:27;16.10;99.90
11617;DHT22;5864;52.998;9.068;2023-06-24T03:57:13;16.10;99.90
11617;DHT22;5864;52.998;9.068;2023-06-24T03:59:58;16.10;99.90
11617;DHT22;5864;52.998;9.068;2023-06-24T04:02:45;16.20;99.90
11617;DHT22;5864;52.998;9.068;2023-06-24T04:05:31;16.10;99.90
11617;DHT22;5864;52.998;9.068;2023-06-24T04:08:16;16.20;99.90
11617;DHT22;5864;52.998;9.068;2023-06-24T04:11:02;16.20;99.90
11617;DHT22;5864;52.998;9.068;2023-06-24T04:13:48;16.30;99.90
11617;DHT22;5864;52.998;9.068;2023-06-24T04:16:33;16.40;99.90
11617;DHT22;5864;52.998;9.068;2023-06-24T04:19:20;16.30;99.90
11617;DHT22;5864;52.998;9.068;2023-06-24T04:22:06;16.30;99.90
11617;DHT22;5864;52.998;9.068;2023-06-24T04:24:52;16.40;99.90
11617;DHT22;5864;52.998;9.068;2023-06-24T04:27:37;16.40;99.90
11617;DHT22;5864;52.998;9.068;2023-06-24T04:30:23;16.60;99.90
11617;DHT22;5864;52.998;9.068;2023-06-24T04:33:09;16.60;99.90
11617;DHT22;5864;52.998;9.068;2023-06-24T04:35:55;16.60;99.90
11617;DHT22;5864;52.998;9.068;2023-06-24T04:38:43;16.70;99.90
11617;DHT22;5864;52.998;9.068;2023-06-24T04:41:28;16.80;99.90
11617;DHT22;5864;52.998;9.068;2023-06-24T04:44:15;16.90;99.90
11617;DHT22;5864;52.998;9.068;2023-06-24T04:47:01;17.10;99.90
11617;DHT22;5864;52.998;9.068;2023-06-24T04:49:47;17.10;99.90
11617;DHT22;5864;52.998;9.068;2023-06-24T04:52:34;17.20;99.90
11617;DHT22;5864;52.998;9.068;2023-06-24T04:55:20;17.30;99.90
11617;DHT22;5864;52.998;9.068;2023-06-24T04:58:06;17.30;99.90
11617;DHT22;5864;52.998;9.068;2023-06-24T05:00:51;17.30;99.90
11617;DHT22;5864;52.998;9.068;2023-06-24T05:03:38;17.40;99.90
11617;DHT22;5864;52.998;9.068;2023-06-24T05:06:23;17.40;99.90
11617;DHT22;5864;52.998;9.068;2023-06-24T05:09:11;17.50;99.90
11617;DHT22;5864;52.998;9.068;2023-06-24T05:11:58;17.70;99.90
11617;DHT22;5864;52.998;9.068;2023-06-24T05:14:43;17.70;99.90
11617;DHT22;5864;52.998;9.068;2023-06-24T05:17:29;17.80;99.90
11617;DHT22;5864;52.998;9.068;2023-06-24T05:20:15;17.80;99.90
11617;DHT22;5864;52.998;9.068;2023-06-24T05:23:01;17.90;99.90
11617;DHT22;5864;52.998;9.068;2023-06-24T05:25:50;18.00;99.90
11617;DHT22;5864;52.998;9.068;2023-06-24T05:28:35;18.10;99.90
11617;DHT22;5864;52.998;9.068;2023-06-24T05:31:21;18.20;99.90
11617;DHT22;5864;52.998;9.068;2023-06-24T05:34:07;18.40;99.90
11617;DHT22;5864;52.998;9.068;2023-06-24T05:36:52;18.60;99.90
11617;DHT22;5864;52.998;9.068;2023-06-24T05:39:38;18.60;99.90
11617;DHT22;5864;52.998;9.068;2023-06-24T05:42:25;18.80;99.90
11617;DHT22;5864;52.998;9.068;2023-06-24T05:45:11;19.00;99.90
11617;DHT22;5864;52.998;9.068;2023-06-24T05:47:57;18.90;90.60
11617;DHT22;5864;52.998;9.068;2023-06-24T05:50:42;19.00;99.90
11617;DHT22;5864;52.998;9.068;2023-06-24T05:53:28;19.20;99.90
11617;DHT22;5864;52.998;9.068;2023-06-24T05:56:14;19.40;94.20
11617;DHT22;5864;52.998;9.068;2023-06-24T05:59:00;19.50;96.30
11617;DHT22;5864;52.998;9.068;2023-06-24T06:01:46;19.80;96.30
11617;DHT22;5864;52.998;9.068;2023-06-24T06:04:32;20.00;69.20
11617;DHT22;5864;52.998;9.068;2023-06-24T06:07:17;20.20;57.60
11617;DHT22;5864;52.998;9.068;2023-06-24T06:10:04;20.30;56.70
11617;DHT22;5864;52.998;9.068;2023-06-24T06:12:49;20.70;86.10
11617;DHT22;5864;52.998;9.068;2023-06-24T06:15:37;20.80;56.80
11617;DHT22;5864;52.998;9.068;2023-06-24T06:18:22;20.90;1.00
11617;DHT22;5864;52.998;9.068;2023-06-24T06:21:08;21.10;11.10
11617;DHT22;5864;52.998;9.068;2023-06-24T06:23:54;21.30;1.00
11617;DHT22;5864;52.998;9.068;2023-06-24T06:26:42;21.30;1.00
11617;DHT22;5864;52.998;9.068;2023-06-24T06:29:28;21.60;1.00
11617;DHT22;5864;52.998;9.068;2023-06-24T06:32:15;21.60;1.00
11617;DHT22;5864;52.998;9.068;2023-06-24T06:35:01;21.80;1.00
11617;DHT22;5864;52.998;9.068;2023-06-24T06:37:46;22.10;1.00
11617;DHT22;5864;52.998;9.068;2023-06-24T06:40:36;22.20;1.00
11617;DHT22;5864;52.998;9.068;2023-06-24T06:43:21;22.50;1.00
11617;DHT22;5864;52.998;9.068;2023-06-24T06:46:07;22.70;1.00
11617;DHT22;5864;52.998;9.068;2023-06-24T06:48:54;22.90;1.00
11617;DHT22;5864;52.998;9.068;2023-06-24T06:51:39;23.00;1.00
11617;DHT22;5864;52.998;9.068;2023-06-24T06:54:25;23.10;1.00
11617;DHT22;5864;52.998;9.068;2023-06-24T06:57:11;23.30;99.90
11617;DHT22;5864;52.998;9.068;2023-06-24T06:59:56;23.30;1.00
11617;DHT22;5864;52.998;9.068;2023-06-24T07:02:42;23.30;1.00
11617;DHT22;5864;52.998;9.068;2023-06-24T07:05:29;22.70;1.00
11617;DHT22;5864;52.998;9.068;2023-06-24T07:08:15;23.10;99.90
11617;DHT22;5864;52.998;9.068;2023-06-24T07:11:01;22.80;1.00
11617;DHT22;5864;52.998;9.068;2023-06-24T07:13:47;23.40;1.00
11617;DHT22;5864;52.998;9.068;2023-06-24T07:16:35;23.60;99.90
11617;DHT22;5864;52.998;9.068;2023-06-24T07:19:21;23.80;99.90
11617;DHT22;5864;52.998;9.068;2023-06-24T07:22:08;24.10;1.00
11617;DHT22;5864;52.998;9.068;2023-06-24T07:24:53;24.30;99.90
11617;DHT22;5864;52.998;9.068;2023-06-24T07:27:40;24.60;99.90
11617;DHT22;5864;52.998;9.068;2023-06-24T07:30:25;25.00;1.00
11617;DHT22;5864;52.998;9.068;2023-06-24T07:33:11;25.20;1.00
11617;DHT22;5864;52.998;9.068;2023-06-24T07:35:57;25.20;1.00
11617;DHT22;5864;52.998;9.068;2023-06-24T07:38:44;25.10;1.00
11617;DHT22;5864;52.998;9.068;2023-06-24T07:41:29;25.20;1.00
11617;DHT22;5864;52.998;9.068;2023-06-24T07:44:15;25.00;99.90
11617;DHT22;5864;52.998;9.068;2023-06-24T07:47:00;25.50;99.90
11617;DHT22;5864;52.998;9.068;2023-06-24T07:49:46;25.90;1.00
11617;DHT22;5864;52.998;9.068;2023-06-24T07:52:32;26.40;99.90
11617;DHT22;5864;52.998;9.068;2023-06-24T07:55:19;26.80;99.90
11617;DHT22;5864;52.998;9.068;2023-06-24T07:58:05;26.60;99.90
11617;DHT22;5864;52.998;9.068;2023-06-24T08:00:50;26.80;99.90
11617;DHT22;5864;52.998;9.068;2023-06-24T08:03:36;26.70;1.00
11617;DHT22;5864;52.998;9.068;2023-06-24T08:06:22;26.80;1.00
11617;DHT22;5864;52.998;9.068;2023-06-24T08:09:07;26.90;1.00
11617;DHT22;5864;52.998;9.068;2023-06-24T08:11:54;27.20;99.90
11617;DHT22;5864;52.998;9.068;2023-06-24T08:14:40;27.20;1.00
11617;DHT22;5864;52.998;9.068;2023-06-24T08:17:26;27.30;99.90
11617;DHT22;5864;52.998;9.068;2023-06-24T08:20:12;27.70;1.00
11617;DHT22;5864;52.998;9.068;2023-06-24T08:22:57;27.70;99.90
11617;DHT22;5864;52.998;9.068;2023-06-24T08:25:43;27.40;99.90
11617;DHT22;5864;52.998;9.068;2023-06-24T08:28:30;27.60;1.00
11617;DHT22;5864;52.998;9.068;2023-06-24T08:31:16;27.80;99.90
11617;DHT22;5864;52.998;9.068;2023-06-24T08:34:02;28.20;99.90
11617;DHT22;5864;52.998;9.068;2023-06-24T08:36:49;28.50;1.00
11617;DHT22;5864;52.998;9.068;2023-06-24T08:39:35;28.70;99.90
11617;DHT22;5864;52.998;9.068;2023-06-24T08:42:22;29.10;99.90
11617;DHT22;5864;52.998;9.068;2023-06-24T08:45:10;28.60;1.00
11617;DHT22;5864;52.998;9.068;2023-06-24T08:47:56;28.80;16.40
11617;DHT22;5864;52.998;9.068;2023-06-24T08:50:44;29.20;1.00
11617;DHT22;5864;52.998;9.068;2023-06-24T08:53:31;28.60;1.00
11617;DHT22;5864;52.998;9.068;2023-06-24T08:56:17;28.30;99.90
11617;DHT22;5864;52.998;9.068;2023-06-24T08:59:02;28.50;1.00
11617;DHT22;5864;52.998;9.068;2023-06-24T09:01:49;28.70;99.90
11617;DHT22;5864;52.998;9.068;2023-06-24T09:07:26;29.90;1.00
11617;DHT22;5864;52.998;9.068;2023-06-24T09:10:28;30.10;1.00
11617;DHT22;5864;52.998;9.068;2023-06-24T09:13:14;30.30;1.00
11617;DHT22;5864;52.998;9.068;2023-06-24T09:16:00;30.00;1.00
11617;DHT22;5864;52.998;9.068;2023-06-24T09:18:54;30.20;1.00
11617;DHT22;5864;52.998;9.068;2023-06-24T09:21:45;30.50;1.00
11617;DHT22;5864;52.998;9.068;2023-06-24T09:24:31;30.80;1.00
11617;DHT22;5864;52.998;9.068;2023-06-24T09:27:17;30.50;1.00
11617;DHT22;5864;52.998;9.068;2023-06-24T09:30:16;30.60;1.00
11617;DHT22;5864;52.998;9.068;2023-06-24T09:33:03;30.60;1.00
11617;DHT22;5864;52.998;9.068;2023-06-24T09:35:51;30.70;1.00
11617;DHT22;5864;52.998;9.068;2023-06-24T09:38:37;30.80;1.00
11617;DHT22;5864;52.998;9.068;2023-06-24T09:41:24;30.80;1.00
11617;DHT22;5864;52.998;9.068;2023-06-24T09:44:11;31.00;1.00
11617;DHT22;5864;52.998;9.068;2023-06-24T09:46:58;31.00;1.00
11617;DHT22;5864;52.998;9.068;2023-06-24T09:49:43;30.60;1.00
11617;DHT22;5864;52.998;9.068;2023-06-24T09:52:31;30.80;1.00
11617;DHT22;5864;52.998;9.068;2023-06-24T09:55:19;30.60;1.00
11617;DHT22;5864;52.998;9.068;2023-06-24T09:58:05;31.30;1.00
11617;DHT22;5864;52.998;9.068;2023-06-24T10:00:50;31.10;1.00
11617;DHT22;5864;52.998;9.068;2023-06-24T10:03:37;31.30;1.00
11617;DHT22;5864;52.998;9.068;2023-06-24T10:06:24;31.30;1.00
11617;DHT22;5864;52.998;9.068;2023-06-24T10:09:12;31.90;1.00
11617;DHT22;5864;52.998;9.068;2023-06-24T10:12:00;31.70;1.00
11617;DHT22;5864;52.998;9.068;2023-06-24T10:14:46;31.40;1.00
11617;DHT22;5864;52.998;9.068;2023-06-24T10:17:32;31.70;1.00
11617;DHT22;5864;52.998;9.068;2023-06-24T10:20:23;32.10;1.00
11617;DHT22;5864;52.998;9.068;2023-06-24T10:23:09;32.00;1.00
11617;DHT22;5864;52.998;9.068;2023-06-24T10:25:56;32.10;1.00
11617;DHT22;5864;52.998;9.068;2023-06-24T10:29:10;32.00;1.00
11617;DHT22;5864;52.998;9.068;2023-06-24T10:32:04;32.10;1.00
11617;DHT22;5864;52.998;9.068;2023-06-24T10:34:54;31.80;1.00
11617;DHT22;5864;52.998;9.068;2023-06-24T10:37:49;32.00;1.00
11617;DHT22;5864;52.998;9.068;2023-06-24T10:40:39;32.10;1.00
11617;DHT22;5864;52.998;9.068;2023-06-24T10:43:27;32.30;1.00
11617;DHT22;5864;52.998;9.068;2023-06-24T10:46:15;32.40;1.00
11617;DHT22;5864;52.998;9.068;2023-06-24T10:49:00;32.70;1.00
11617;DHT22;5864;52.998;9.068;2023-06-24T10:51:46;32.70;1.00
11617;DHT22;5864;52.998;9.068;2023-06-24T10:54:32;32.50;1.00
11617;DHT22;5864;52.998;9.068;2023-06-24T10:57:21;32.60;1.00
11617;DHT22;5864;52.998;9.068;2023-06-24T11:00:10;32.50;1.00
11617;DHT22;5864;52.998;9.068;2023-06-24T11:02:57;32.80;1.00
11617;DHT22;5864;52.998;9.068;2023-06-24T11:05:43;32.60;1.00
11617;DHT22;5864;52.998;9.068;2023-06-24T11:08:30;32.60;1.00
11617;DHT22;5864;52.998;9.068;2023-06-24T11:11:19;32.80;1.00
11617;DHT22;5864;52.998;9.068;2023-06-24T11:14:06;33.10;1.00
11617;DHT22;5864;52.998;9.068;2023-06-24T11:16:53;32.70;1.00
11617;DHT22;5864;52.998;9.068;2023-06-24T11:19:39;32.90;1.00
11617;DHT22;5864;52.998;9.068;2023-06-24T11:22:26;32.70;1.00
11617;DHT22;5864;52.998;9.068;2023-06-24T11:25:15;32.50;1.00
11617;DHT22;5864;52.998;9.068;2023-06-24T11:28:01;33.00;1.00
11617;DHT22;5864;52.998;9.068;2023-06-24T11:30:47;33.30;1.00
11617;DHT22;5864;52.998;9.068;2023-06-24T11:33:34;32.50;1.00
11617;DHT22;5864;52.998;9.068;2023-06-24T11:36:19;32.30;99.90
11617;DHT22;5864;52.998;9.068;2023-06-24T11:39:04;33.00;1.00
11617;DHT22;5864;52.998;9.068;2023-06-24T11:41:51;33.20;1.00
11617;DHT22;5864;52.998;9.068;2023-06-24T11:44:41;33.30;1.00
11617;DHT22;5864;52.998;9.068;2023-06-24T11:47:31;33.00;99.90
11617;DHT22;5864;52.998;9.068;2023-06-24T11:50:18;32.70;1.00
11617;DHT22;5864;52.998;9.068;2023-06-24T11:53:10;32.60;99.90
11617;DHT22;5864;52.998;9.068;2023-06-24T11:55:56;32.70;1.00
11617;DHT22;5864;52.998;9.068;2023-06-24T11:58:43;32.90;1.00
11617;DHT22;5864;52.998;9.068;2023-06-24T12:01:30;33.20;1.00
11617;DHT22;5864;52.998;9.068;2023-06-24T12:04:16;33.20;99.90
11617;DHT22;5864;52.998;9.068;2023-06-24T12:07:03;33.10;1.00
11617;DHT22;5864;52.998;9.068;2023-06-24T12:09:49;32.20;99.90
11617;DHT22;5864;52.998;9.068;2023-06-24T12:12:35;32.30;1.00
11617;DHT22;5864;52.998;9.068;2023-06-24T12:15:21;32.20;1.00
11617;DHT22;5864;52.998;9.068;2023-06-24T12:18:07;31.90;99.90
11617;DHT22;5864;52.998;9.068;2023-06-24T12:20:53;32.10;1.00
11617;DHT22;5864;52.998;9.068;2023-06-24T12:23:40;31.90;1.00
11617;DHT22;5864;52.998;9.068;2023-06-24T12:26:25;31.50;1.00
11617;DHT22;5864;52.998;9.068;2023-06-24T12:29:11;30.80;1.00
11617;DHT22;5864;52.998;9.068;2023-06-24T12:31:56;30.60;1.00
11617;DHT22;5864;52.998;9.068;2023-06-24T12:34:42;30.80;1.00
11617;DHT22;5864;52.998;9.068;2023-06-24T12:37:29;30.30;1.00
11617;DHT22;5864;52.998;9.068;2023-06-24T12:40:16;30.30;1.00
11617;DHT22;5864;52.998;9.068;2023-06-24T12:43:02;30.60;1.00
11617;DHT22;5864;52.998;9.068;2023-06-24T12:45:48;31.00;1.00
11617;DHT22;5864;52.998;9.068;2023-06-24T12:48:35;31.00;1.00
11617;DHT22;5864;52.998;9.068;2023-06-24T12:51:21;30.70;1.00
11617;DHT22;5864;52.998;9.068;2023-06-24T12:54:06;31.30;1.00
11617;DHT22;5864;52.998;9.068;2023-06-24T12:56:53;31.70;1.00
11617;DHT22;5864;52.998;9.068;2023-06-24T12:59:39;31.90;1.00
11617;DHT22;5864;52.998;9.068;2023-06-24T13:02:25;31.20;1.00
11617;DHT22;5864;52.998;9.068;2023-06-24T13:05:10;31.50;1.00
11617;DHT22;5864;52.998;9.068;2023-06-24T13:07:56;32.00;1.00
11617;DHT22;5864;52.998;9.068;2023-06-24T13:10:41;31.90;1.00
11617;DHT22;5864;52.998;9.068;2023-06-24T13:13:28;31.60;1.00
11617;DHT22;5864;52.998;9.068;2023-06-24T13:16:14;31.60;1.00
11617;DHT22;5864;52.998;9.068;2023-06-24T13:18:59;31.50;99.90
11617;DHT22;5864;52.998;9.068;2023-06-24T13:21:45;31.60;1.00
11617;DHT22;5864;52.998;9.068;2023-06-24T13:24:30;31.90;1.00
11617;DHT22;5864;52.998;9.068;2023-06-24T13:27:16;31.90;1.00
11617;DHT22;5864;52.998;9.068;2023-06-24T13:30:04;31.80;99.90
11617;DHT22;5864;52.998;9.068;2023-06-24T13:32:49;31.90;1.00
11617;DHT22;5864;52.998;9.068;2023-06-24T13:35:35;31.90;1.00
11617;DHT22;5864;52.998;9.068;2023-06-24T13:38:21;31.60;1.00
11617;DHT22;5864;52.998;9.068;2023-06-24T13:41:06;31.80;1.00
11617;DHT22;5864;52.998;9.068;2023-06-24T13:43:52;32.10;1.00
11617;DHT22;5864;52.998;9.068;2023-06-24T13:46:39;32.40;1.00
11617;DHT22;5864;52.998;9.068;2023-06-24T13:49:24;32.70;1.00
11617;DHT22;5864;52.998;9.068;2023-06-24T13:52:10;32.50;47.10
11617;DHT22;5864;52.998;9.068;2023-06-24T13:54:55;31.90;1.00
11617;DHT22;5864;52.998;9.068;2023-06-24T13:57:41;32.10;1.00
11617;DHT22;5864;52.998;9.068;2023-06-24T14:00:26;32.10;1.00
11617;DHT22;5864;52.998;9.068;2023-06-24T14:03:13;32.10;1.00
11617;DHT22;5864;52.998;9.068;2023-06-24T14:05:58;32.30;1.00
11617;DHT22;5864;52.998;9.068;2023-06-24T14:08:45;32.60;1.00
11617;DHT22;5864;52.998;9.068;2023-06-24T14:11:31;32.70;1.00
11617;DHT22;5864;52.998;9.068;2023-06-24T14:14:17;32.20;99.90
11617;DHT22;5864;52.998;9.068;2023-06-24T14:17:02;32.50;99.90
11617;DHT22;5864;52.998;9.068;2023-06-24T14:19:49;32.70;1.00
11617;DHT22;5864;52.998;9.068;2023-06-24T14:22:35;32.60;99.90
11617;DHT22;5864;52.998;9.068;2023-06-24T14:25:20;32.30;1.00
11617;DHT22;5864;52.998;9.068;2023-06-24T14:28:06;32.20;99.90
11617;DHT22;5864;52.998;9.068;2023-06-24T14:30:52;32.50;1.00
11617;DHT22;5864;52.998;9.068;2023-06-24T14:33:38;32.60;1.00
11617;DHT22;5864;52.998;9.068;2023-06-24T14:36:25;32.60;1.00
11617;DHT22;5864;52.998;9.068;2023-06-24T14:39:14;32.30;99.90
11617;DHT22;5864;52.998;9.068;2023-06-24T14:42:00;31.70;1.00
11617;DHT22;5864;52.998;9.068;2023-06-24T14:44:46;31.90;1.00
11617;DHT22;5864;52.998;9.068;2023-06-24T14:47:31;32.10;99.90
11617;DHT22;5864;52.998;9.068;2023-06-24T14:50:17;31.90;99.90
11617;DHT22;5864;52.998;9.068;2023-06-24T14:53:04;31.70;99.90
11617;DHT22;5864;52.998;9.068;2023-06-24T14:55:50;31.40;99.90
11617;DHT22;5864;52.998;9.068;2023-06-24T14:58:35;31.50;1.00
11617;DHT22;5864;52.998;9.068;2023-06-24T15:01:21;31.60;1.00
11617;DHT22;5864;52.998;9.068;2023-06-24T15:04:07;31.60;1.00
11617;DHT22;5864;52.998;9.068;2023-06-24T15:06:52;31.60;99.90
11617;DHT22;5864;52.998;9.068;2023-06-24T15:09:39;31.40;99.90
11617;DHT22;5864;52.998;9.068;2023-06-24T15:12:25;31.30;99.90
11617;DHT22;5864;52.998;9.068;2023-06-24T15:15:11;31.30;99.90
11617;DHT22;5864;52.998;9.068;2023-06-24T15:17:56;31.60;99.90
11617;DHT22;5864;52.998;9.068;2023-06-24T15:20:44;31.60;1.00
11617;DHT22;5864;52.998;9.068;2023-06-24T15:23:29;31.60;1.00
11617;DHT22;5864;52.998;9.068;2023-06-24T15:26:17;31.50;1.00
11617;DHT22;5864;52.998;9.068;2023-06-24T15:29:02;31.80;1.00
11617;DHT22;5864;52.998;9.068;2023-06-24T15:31:48;31.70;1.00
11617;DHT22;5864;52.998;9.068;2023-06-24T15:34:33;32.00;99.90
11617;DHT22;5864;52.998;9.068;2023-06-24T15:37:19;32.10;1.00
11617;DHT22;5864;52.998;9.068;2023-06-24T15:40:06;32.30;99.90
11617;DHT22;5864;52.998;9.068;2023-06-24T15:42:53;32.10;1.00
11617;DHT22;5864;52.998;9.068;2023-06-24T15:45:38;32.20;1.00
11617;DHT22;5864;52.998;9.068;2023-06-24T15:48:24;32.10;1.00
11617;DHT22;5864;52.998;9.068;2023-06-24T15:51:09;31.80;99.90
11617;DHT22;5864;52.998;9.068;2023-06-24T15:53:55;31.60;99.90
11617;DHT22;5864;52.998;9.068;2023-06-24T15:56:41;31.60;99.90
11617;DHT22;5864;52.998;9.068;2023-06-24T15:59:28;31.40;1.00
11617;DHT22;5864;52.998;9.068;2023-06-24T16:02:14;31.30;99.90
11617;DHT22;5864;52.998;9.068;2023-06-24T16:05:00;31.10;99.90
11617;DHT22;5864;52.998;9.068;2023-06-24T16:07:49;31.00;99.90
11617;DHT22;5864;52.998;9.068;2023-06-24T16:10:35;30.80;99.90
11617;DHT22;5864;52.998;9.068;2023-06-24T16:13:21;30.70;99.90
11617;DHT22;5864;52.998;9.068;2023-06-24T16:16:09;30.60;99.90
11617;DHT22;5864;52.998;9.068;2023-06-24T16:18:55;30.40;1.00
11617;DHT22;5864;52.998;9.068;2023-06-24T16:21:40;30.10;99.90
11617;DHT22;5864;52.998;9.068;2023-06-24T16:24:26;29.90;1.00
11617;DHT22;5864;52.998;9.068;2023-06-24T16:27:12;29.90;1.00
11617;DHT22;5864;52.998;9.068;2023-06-24T16:29:57;29.90;1.00
11617;DHT22;5864;52.998;9.068;2023-06-24T16:32:44;29.90;1.00
11617;DHT22;5864;52.998;9.068;2023-06-24T16:35:31;29.50;1.00
11617;DHT22;5864;52.998;9.068;2023-06-24T16:38:16;29.60;1.00
11617;DHT22;5864;52.998;9.068;2023-06-24T16:41:02;29.50;1.00
11617;DHT22;5864;52.998;9.068;2023-06-24T16:43:47;29.40;1.00
11617;DHT22;5864;52.998;9.068;2023-06-24T16:46:33;29.20;1.00
11617;DHT22;5864;52.998;9.068;2023-06-24T16:49:20;29.20;1.00
11617;DHT22;5864;52.998;9.068;2023-06-24T16:52:06;29.10;1.00
11617;DHT22;5864;52.998;9.068;2023-06-24T16:54:51;29.00;1.00
11617;DHT22;5864;52.998;9.068;2023-06-24T16:57:37;28.90;1.00
11617;DHT22;5864;52.998;9.068;2023-06-24T17:00:23;28.90;1.00
11617;DHT22;5864;52.998;9.068;2023-06-24T17:03:08;28.70;1.00
11617;DHT22;5864;52.998;9.068;2023-06-24T17:05:55;28.60;1.00
11617;DHT22;5864;52.998;9.068;2023-06-24T17:08:41;28.60;1.00
11617;DHT22;5864;52.998;9.068;2023-06-24T17:11:26;28.50;1.00
11617;DHT22;5864;52.998;9.068;2023-06-24T17:14:13;28.50;1.00
11617;DHT22;5864;52.998;9.068;2023-06-24T17:16:59;28.40;1.00
11617;DHT22;5864;52.998;9.068;2023-06-24T17:19:44;28.30;1.00
11617;DHT22;5864;52.998;9.068;2023-06-24T17:22:31;28.20;1.00
11617;DHT22;5864;52.998;9.068;2023-06-24T17:25:17;28.10;1.00
11617;DHT22;5864;52.998;9.068;2023-06-24T17:28:03;27.80;1.00
11617;DHT22;5864;52.998;9.068;2023-06-24T17:30:48;27.80;1.00
11617;DHT22;5864;52.998;9.068;2023-06-24T17:33:34;27.60;1.00
11617;DHT22;5864;52.998;9.068;2023-06-24T17:36:20;27.40;1.00
11617;DHT22;5864;52.998;9.068;2023-06-24T17:39:07;27.40;1.00
11617;DHT22;5864;52.998;9.068;2023-06-24T17:41:52;27.40;1.00
11617;DHT22;5864;52.998;9.068;2023-06-24T17:44:38;27.50;1.00
11617;DHT22;5864;52.998;9.068;2023-06-24T17:47:24;27.60;1.00
11617;DHT22;5864;52.998;9.068;2023-06-24T17:50:09;27.40;1.00
11617;DHT22;5864;52.998;9.068;2023-06-24T17:52:55;27.50;1.00
11617;DHT22;5864;52.998;9.068;2023-06-24T17:55:42;27.50;1.00
11617;DHT22;5864;52.998;9.068;2023-06-24T17:58:28;27.70;1.00
11617;DHT22;5864;52.998;9.068;2023-06-24T18:01:13;27.70;1.00
11617;DHT22;5864;52.998;9.068;2023-06-24T18:03:59;27.80;1.00
11617;DHT22;5864;52.998;9.068;2023-06-24T18:06:45;27.90;1.00
11617;DHT22;5864;52.998;9.068;2023-06-24T18:09:31;27.90;43.50